createdAt,value
2017-10-16T00:00:12.731Z,13.10
2017-10-16T00:02:40.352Z,13.10
2017-10-16T00:05:07.991Z,13.00
2017-10-16T00:07:35.583Z,13.10
2017-10-16T00:10:03.200Z,13.10
2017-10-16T00:12:30.854Z,13.10
2017-10-16T00:14:58.427Z,13.10
2017-10-16T00:17:26.038Z,13.10
2017-10-16T00:19:53.615Z,13.10
2017-10-16T00:22:21.230Z,13.00
2017-10-16T00:24:48.809Z,13.00
2017-10-16T00:27:16.429Z,12.90
2017-10-16T00:29:44.006Z,12.80
2017-10-16T00:32:11.615Z,12.80
2017-10-16T00:34:40.044Z,12.70
2017-10-16T00:37:07.688Z,12.70
2017-10-16T00:39:35.341Z,12.70
2017-10-16T00:42:02.950Z,12.70
2017-10-16T00:44:30.523Z,12.70
2017-10-16T00:46:58.138Z,12.60
2017-10-16T00:49:25.713Z,12.60
2017-10-16T00:51:53.285Z,12.60
2017-10-16T00:54:20.900Z,12.60
2017-10-16T00:56:48.563Z,12.60
2017-10-16T00:59:16.203Z,12.50
2017-10-16T01:01:43.819Z,12.50
2017-10-16T01:04:11.438Z,12.50
2017-10-16T01:06:39.029Z,12.50
2017-10-16T01:09:06.615Z,12.40
2017-10-16T01:11:34.421Z,12.40
2017-10-16T01:14:02.047Z,12.40
2017-10-16T01:16:29.671Z,12.30
2017-10-16T01:18:57.295Z,12.40
2017-10-16T01:21:25.721Z,12.30
2017-10-16T01:23:53.321Z,12.30
2017-10-16T01:26:20.958Z,12.30
2017-10-16T01:28:48.602Z,12.30
2017-10-16T01:31:16.235Z,12.30
2017-10-16T01:33:43.906Z,12.30
2017-10-16T01:36:11.543Z,12.30
2017-10-16T01:38:39.136Z,12.30
2017-10-16T01:41:06.771Z,12.30
2017-10-16T01:43:34.410Z,12.30
2017-10-16T01:46:02.056Z,12.30
2017-10-16T01:48:29.647Z,12.20
2017-10-16T01:50:57.234Z,12.20
2017-10-16T01:53:24.904Z,12.20
2017-10-16T01:55:52.558Z,12.20
2017-10-16T01:58:20.196Z,12.10
2017-10-16T02:00:47.929Z,12.20
2017-10-16T02:03:15.542Z,12.10
2017-10-16T02:05:43.191Z,12.10
2017-10-16T02:08:10.809Z,12.10
2017-10-16T02:10:38.478Z,12.10
2017-10-16T02:13:06.051Z,12.10
2017-10-16T02:15:33.628Z,12.10
2017-10-16T02:18:01.216Z,12.00
2017-10-16T02:20:28.822Z,12.00
2017-10-16T02:22:56.494Z,12.00
2017-10-16T02:25:24.111Z,12.00
2017-10-16T02:27:51.728Z,12.00
2017-10-16T02:30:19.338Z,11.90
2017-10-16T02:32:46.947Z,11.90
2017-10-16T02:35:14.571Z,11.90
2017-10-16T02:37:42.141Z,11.90
2017-10-16T02:40:09.754Z,12.00
2017-10-16T02:42:37.374Z,12.00
2017-10-16T02:45:04.994Z,12.10
2017-10-16T02:47:32.607Z,12.10
2017-10-16T02:50:00.260Z,12.20
2017-10-16T02:52:27.875Z,12.20
2017-10-16T02:54:55.487Z,12.30
2017-10-16T02:57:23.063Z,12.50
2017-10-16T02:59:51.047Z,12.60
2017-10-16T03:02:19.423Z,12.70
2017-10-16T03:04:47.810Z,12.60
2017-10-16T03:07:16.190Z,12.60
2017-10-16T03:09:43.869Z,12.60
2017-10-16T03:12:11.484Z,12.70
2017-10-16T03:14:39.057Z,12.70
2017-10-16T03:17:06.711Z,12.70
2017-10-16T03:19:34.322Z,12.80
2017-10-16T03:22:01.946Z,12.80
2017-10-16T03:24:29.563Z,12.80
2017-10-16T03:26:57.174Z,12.70
2017-10-16T03:29:24.804Z,12.70
2017-10-16T03:31:52.415Z,12.60
2017-10-16T03:34:20.027Z,12.60
2017-10-16T03:36:47.646Z,12.60
2017-10-16T03:39:15.260Z,12.60
2017-10-16T03:41:42.835Z,12.50
2017-10-16T03:44:10.444Z,12.50
2017-10-16T03:46:38.058Z,12.50
2017-10-16T03:49:05.681Z,12.50
2017-10-16T03:51:33.259Z,12.50
2017-10-16T03:54:00.870Z,12.50
2017-10-16T03:56:28.448Z,12.50
2017-10-16T03:58:56.058Z,12.50
2017-10-16T04:01:23.678Z,12.50
2017-10-16T04:03:51.290Z,12.50
2017-10-16T04:06:18.916Z,12.50
2017-10-16T04:08:46.530Z,12.40
2017-10-16T04:11:14.138Z,12.40
2017-10-16T04:13:41.750Z,12.40
2017-10-16T04:16:09.372Z,12.40
2017-10-16T04:18:36.983Z,12.40
2017-10-16T04:21:04.607Z,12.30
2017-10-16T04:23:32.227Z,12.30
2017-10-16T04:25:59.844Z,12.30
2017-10-16T04:28:27.457Z,12.30
2017-10-16T04:30:55.079Z,12.30
2017-10-16T04:33:22.696Z,12.20
2017-10-16T04:35:50.352Z,12.20
2017-10-16T04:38:17.970Z,12.20
2017-10-16T04:40:45.584Z,12.20
2017-10-16T04:43:13.201Z,12.20
2017-10-16T04:45:40.810Z,12.20
2017-10-16T04:48:08.380Z,12.20
2017-10-16T04:50:36.750Z,12.30
2017-10-16T04:53:04.324Z,12.30
2017-10-16T04:55:31.934Z,12.30
2017-10-16T04:57:59.547Z,12.30
2017-10-16T05:00:27.155Z,12.30
2017-10-16T05:02:54.764Z,12.40
2017-10-16T05:05:22.375Z,12.40
2017-10-16T05:07:49.983Z,12.40
2017-10-16T05:10:17.605Z,12.40
2017-10-16T05:12:45.214Z,12.40
2017-10-16T05:15:12.830Z,12.40
2017-10-16T05:17:40.470Z,12.40
2017-10-16T05:20:08.079Z,12.40
2017-10-16T05:22:35.730Z,12.40
2017-10-16T05:25:03.349Z,12.40
2017-10-16T05:27:30.928Z,12.30
2017-10-16T05:29:58.570Z,12.30
2017-10-16T05:32:26.189Z,12.20
2017-10-16T05:34:53.811Z,12.20
2017-10-16T05:37:21.422Z,12.20
2017-10-16T05:39:49.031Z,12.20
2017-10-16T05:42:16.617Z,12.20
2017-10-16T05:44:44.257Z,12.20
2017-10-16T05:47:11.895Z,12.20
2017-10-16T05:49:39.527Z,12.20
2017-10-16T05:52:07.139Z,12.20
2017-10-16T05:54:34.754Z,12.20
2017-10-16T05:57:03.143Z,12.10
2017-10-16T05:59:30.777Z,12.10
2017-10-16T06:01:59.174Z,12.00
2017-10-16T06:04:27.552Z,12.00
2017-10-16T06:06:55.955Z,12.00
2017-10-16T06:09:23.583Z,11.90
2017-10-16T06:11:51.152Z,12.00
2017-10-16T06:14:19.542Z,11.90
2017-10-16T06:16:48.051Z,11.90
2017-10-16T06:19:15.688Z,11.90
2017-10-16T06:21:43.332Z,11.90
2017-10-16T06:24:10.986Z,11.90
2017-10-16T06:26:38.595Z,12.00
2017-10-16T06:29:06.145Z,12.00
2017-10-16T06:31:33.691Z,12.10
2017-10-16T06:34:01.340Z,12.20
2017-10-16T06:36:29.827Z,12.30
2017-10-16T06:38:57.476Z,12.30
2017-10-16T06:41:25.915Z,12.50
2017-10-16T06:43:53.527Z,12.50
2017-10-16T06:46:21.109Z,12.60
2017-10-16T06:48:48.722Z,12.60
2017-10-16T06:51:16.331Z,12.70
2017-10-16T06:53:43.947Z,12.80
2017-10-16T06:56:11.558Z,12.80
2017-10-16T06:58:39.282Z,12.80
2017-10-16T07:01:06.897Z,12.90
2017-10-16T07:03:34.552Z,12.90
2017-10-16T07:06:02.124Z,13.00
2017-10-16T07:08:29.735Z,13.10
2017-10-16T07:10:58.106Z,13.30
2017-10-16T07:13:25.719Z,13.30
2017-10-16T07:15:53.295Z,13.40
2017-10-16T07:18:20.913Z,13.50
2017-10-16T07:20:48.522Z,13.60
2017-10-16T07:23:16.134Z,13.70
2017-10-16T07:25:43.743Z,13.80
2017-10-16T07:28:11.395Z,13.80
2017-10-16T07:30:39.003Z,13.90
2017-10-16T07:33:07.394Z,14.00
2017-10-16T07:35:35.734Z,14.10
2017-10-16T07:38:03.359Z,14.10
2017-10-16T07:40:31.034Z,14.20
2017-10-16T07:42:58.658Z,14.30
2017-10-16T07:45:26.271Z,14.40
2017-10-16T07:47:53.842Z,14.50
2017-10-16T07:50:21.470Z,14.60
2017-10-16T07:52:49.049Z,14.70
2017-10-16T07:55:16.622Z,14.80
2017-10-16T07:57:44.230Z,14.90
2017-10-16T08:00:11.838Z,14.90
2017-10-16T08:02:39.457Z,15.10
2017-10-16T08:05:07.062Z,15.20
2017-10-16T08:07:34.808Z,15.20
2017-10-16T08:10:02.462Z,15.30
2017-10-16T08:12:30.033Z,15.30
2017-10-16T08:14:57.678Z,15.40
2017-10-16T08:17:25.303Z,15.50
2017-10-16T08:19:53.682Z,15.70
2017-10-16T08:22:22.083Z,15.80
2017-10-16T08:24:49.827Z,15.80
2017-10-16T08:27:18.232Z,15.90
2017-10-16T08:29:45.863Z,15.90
2017-10-16T08:32:13.486Z,16.00
2017-10-16T08:34:41.154Z,16.10
2017-10-16T08:37:08.800Z,16.20
2017-10-16T08:39:36.438Z,16.20
2017-10-16T08:42:04.024Z,16.30
2017-10-16T08:44:31.660Z,16.40
2017-10-16T08:46:59.294Z,16.50
2017-10-16T08:49:26.958Z,16.60
2017-10-16T08:51:54.598Z,16.60
2017-10-16T08:54:22.230Z,16.70
2017-10-16T08:56:49.859Z,16.80
2017-10-16T08:59:17.495Z,16.80
2017-10-16T09:01:45.114Z,16.80
2017-10-16T09:04:12.723Z,16.90
2017-10-16T09:06:40.359Z,17.00
2017-10-16T09:09:07.987Z,17.10
2017-10-16T09:11:35.770Z,17.20
2017-10-16T09:14:03.349Z,17.30
2017-10-16T09:16:30.976Z,17.40
2017-10-16T09:18:58.615Z,17.50
2017-10-16T09:21:26.238Z,17.50
2017-10-16T09:23:53.882Z,17.60
2017-10-16T09:26:21.533Z,17.70
2017-10-16T09:28:49.150Z,17.80
2017-10-16T09:31:16.738Z,17.90
2017-10-16T09:33:44.358Z,18.00
2017-10-16T09:36:12.283Z,18.10
2017-10-16T09:38:39.946Z,18.20
2017-10-16T09:41:07.570Z,18.20
2017-10-16T09:43:35.205Z,18.30
2017-10-16T09:46:03.036Z,18.40
2017-10-16T09:48:30.663Z,18.50
2017-10-16T09:50:58.302Z,18.50
2017-10-16T09:53:25.940Z,18.60
2017-10-16T09:55:53.580Z,18.70
2017-10-16T09:58:21.243Z,18.70
2017-10-16T10:00:48.821Z,18.80
2017-10-16T10:03:16.466Z,18.80
2017-10-16T10:05:44.114Z,18.90
2017-10-16T10:08:11.730Z,19.00
2017-10-16T10:10:39.354Z,19.00
2017-10-16T10:13:06.985Z,19.00
2017-10-16T10:15:34.630Z,19.10
2017-10-16T10:18:03.026Z,19.20
2017-10-16T10:20:30.690Z,19.20
2017-10-16T10:22:58.303Z,19.30
2017-10-16T10:25:25.927Z,19.30
2017-10-16T10:27:53.497Z,19.40
2017-10-16T10:30:21.263Z,19.40
2017-10-16T10:32:48.877Z,19.50
2017-10-16T10:35:16.483Z,19.50
2017-10-16T10:37:44.090Z,19.60
2017-10-16T10:40:11.704Z,19.70
2017-10-16T10:42:39.271Z,19.70
2017-10-16T10:45:06.918Z,19.80
2017-10-16T10:47:34.524Z,19.80
2017-10-16T10:50:02.139Z,19.90
2017-10-16T10:52:29.751Z,19.90
2017-10-16T10:54:57.315Z,20.00
2017-10-16T10:57:25.730Z,20.10
2017-10-16T10:59:53.298Z,20.00
2017-10-16T11:02:20.873Z,20.10
2017-10-16T11:04:48.494Z,20.10
2017-10-16T11:07:16.104Z,20.10
2017-10-16T11:09:43.717Z,20.20
2017-10-16T11:12:11.326Z,20.20
2017-10-16T11:14:39.158Z,20.20
2017-10-16T11:17:06.802Z,20.20
2017-10-16T11:19:34.431Z,20.20
2017-10-16T11:22:02.077Z,20.30
2017-10-16T11:24:29.711Z,20.30
2017-10-16T11:26:57.334Z,20.30
2017-10-16T11:29:25.819Z,20.30
2017-10-16T11:31:53.438Z,20.30
2017-10-16T11:34:21.109Z,20.40
2017-10-16T11:36:48.726Z,20.40
2017-10-16T11:39:16.352Z,20.40
2017-10-16T11:41:43.973Z,20.50
2017-10-16T11:44:11.574Z,20.50
2017-10-16T11:46:39.219Z,20.50
2017-10-16T11:49:06.814Z,20.50
2017-10-16T11:51:34.394Z,20.50
2017-10-16T11:54:02.035Z,20.50
2017-10-16T11:56:29.631Z,20.50
2017-10-16T11:58:57.255Z,20.60
2017-10-16T12:01:24.894Z,20.60
2017-10-16T12:03:52.515Z,20.70
2017-10-16T12:06:20.146Z,20.70
2017-10-16T12:08:47.751Z,20.80
2017-10-16T12:11:15.370Z,20.90
2017-10-16T12:13:43.007Z,20.80
2017-10-16T12:16:10.632Z,20.80
2017-10-16T12:18:38.220Z,20.80
2017-10-16T12:21:05.858Z,20.80
2017-10-16T12:23:33.491Z,20.80
2017-10-16T12:26:01.114Z,20.70
2017-10-16T12:28:28.755Z,20.70
2017-10-16T12:30:56.349Z,20.70
2017-10-16T12:33:23.940Z,20.60
2017-10-16T12:35:51.518Z,20.60
2017-10-16T12:38:19.186Z,20.60
2017-10-16T12:40:46.818Z,20.50
2017-10-16T12:43:14.400Z,20.50
2017-10-16T12:45:41.996Z,20.50
2017-10-16T12:48:09.610Z,20.50
2017-10-16T12:50:37.234Z,20.60
2017-10-16T12:53:04.862Z,20.50
2017-10-16T12:55:32.486Z,20.60
2017-10-16T12:58:00.122Z,20.60
2017-10-16T13:00:27.778Z,20.70
2017-10-16T13:02:56.178Z,20.60
2017-10-16T13:05:28.725Z,20.60
2017-10-16T13:07:56.348Z,20.60
2017-10-16T13:10:23.941Z,20.60
2017-10-16T13:12:51.563Z,20.60
2017-10-16T13:15:19.197Z,20.60
2017-10-16T13:17:46.814Z,20.70
2017-10-16T13:20:14.439Z,20.70
2017-10-16T13:22:42.072Z,20.70
2017-10-16T13:25:09.702Z,20.80
2017-10-16T13:27:37.329Z,20.70
2017-10-16T13:30:04.958Z,20.70
2017-10-16T13:32:33.350Z,20.60
2017-10-16T13:35:00.976Z,20.50
2017-10-16T13:37:28.605Z,20.40
2017-10-16T13:39:56.244Z,20.30
2017-10-16T13:42:23.880Z,20.20
2017-10-16T13:44:52.290Z,20.10
2017-10-16T13:47:19.923Z,20.00
2017-10-16T13:49:48.338Z,20.00
2017-10-16T13:52:15.957Z,19.90
2017-10-16T13:54:43.599Z,19.90
2017-10-16T13:57:11.253Z,19.80
2017-10-16T13:59:38.881Z,19.80
2017-10-16T14:02:06.511Z,19.70
2017-10-16T14:04:35.552Z,19.60
2017-10-16T14:07:03.182Z,19.60
2017-10-16T14:09:30.803Z,19.60
2017-10-16T14:12:11.171Z,19.60
2017-10-16T14:14:38.901Z,19.60
2017-10-16T14:17:06.538Z,19.50
2017-10-16T14:19:34.166Z,19.50
2017-10-16T14:22:01.811Z,19.50
2017-10-16T14:24:29.409Z,19.50
2017-10-16T14:26:57.046Z,19.50
2017-10-16T14:29:25.555Z,19.40
2017-10-16T14:31:53.157Z,19.40
2017-10-16T14:34:20.781Z,19.40
2017-10-16T14:36:48.398Z,19.30
2017-10-16T14:39:16.032Z,19.30
2017-10-16T14:41:43.678Z,19.30
2017-10-16T14:44:11.303Z,19.20
2017-10-16T14:46:38.934Z,19.20
2017-10-16T14:49:06.562Z,19.10
2017-10-16T14:51:34.191Z,19.10
2017-10-16T14:54:01.866Z,19.10
2017-10-16T14:56:30.252Z,19.00
2017-10-16T14:58:57.845Z,19.00
2017-10-16T15:01:25.479Z,18.90
2017-10-16T15:03:53.106Z,18.90
2017-10-16T15:06:20.738Z,18.90
2017-10-16T15:08:48.368Z,18.90
2017-10-16T15:11:16.007Z,18.80
2017-10-16T15:13:43.642Z,18.70
2017-10-16T15:16:11.259Z,18.70
2017-10-16T15:18:38.883Z,18.60
2017-10-16T15:21:07.319Z,18.60
2017-10-16T15:23:35.030Z,18.50
2017-10-16T15:26:03.429Z,18.40
2017-10-16T15:28:31.172Z,18.40
2017-10-16T15:30:59.574Z,18.20
2017-10-16T15:33:27.201Z,18.20
2017-10-16T15:35:54.888Z,18.20
2017-10-16T15:38:22.507Z,18.10
2017-10-16T15:40:50.150Z,18.00
2017-10-16T15:43:17.786Z,17.90
2017-10-16T15:45:45.418Z,17.70
2017-10-16T15:48:13.050Z,17.60
2017-10-16T15:50:40.722Z,17.60
2017-10-16T15:53:08.313Z,17.50
2017-10-16T15:55:35.930Z,17.40
2017-10-16T15:58:03.539Z,17.30
2017-10-16T16:00:34.049Z,17.20
2017-10-16T16:03:01.667Z,17.10
2017-10-16T16:05:29.306Z,17.00
2017-10-16T16:07:56.887Z,16.90
2017-10-16T16:10:24.514Z,16.80
2017-10-16T16:12:52.147Z,16.60
2017-10-16T16:15:19.908Z,16.60
2017-10-16T16:17:47.550Z,16.50
2017-10-16T16:20:15.187Z,16.40
2017-10-16T16:22:42.806Z,16.30
2017-10-16T16:25:10.396Z,16.20
2017-10-16T16:27:38.022Z,16.10
2017-10-16T16:30:05.640Z,16.10
2017-10-16T16:32:33.238Z,16.00
2017-10-16T16:35:00.922Z,15.90
2017-10-16T16:37:28.599Z,15.80
2017-10-16T16:39:56.338Z,15.70
2017-10-16T16:42:24.738Z,15.50
2017-10-16T16:44:52.347Z,15.50
2017-10-16T16:47:19.999Z,15.50
2017-10-16T16:49:47.595Z,15.40
2017-10-16T16:52:15.212Z,15.40
2017-10-16T16:54:42.827Z,15.40
2017-10-16T16:57:10.475Z,15.30
2017-10-16T16:59:38.108Z,15.20
2017-10-16T17:02:05.766Z,15.20
2017-10-16T17:04:33.380Z,15.10
2017-10-16T17:07:01.718Z,15.10
2017-10-16T17:09:29.354Z,15.10
2017-10-16T17:11:56.986Z,15.10
2017-10-16T17:14:25.371Z,15.00
2017-10-16T17:16:53.767Z,15.00
2017-10-16T17:19:21.386Z,15.00
2017-10-16T17:21:49.042Z,15.00
2017-10-16T17:24:16.674Z,15.10
2017-10-16T17:26:44.286Z,15.20
2017-10-16T17:29:12.666Z,15.30
2017-10-16T17:31:40.289Z,15.20
2017-10-16T17:34:08.124Z,15.30
2017-10-16T17:36:35.770Z,15.30
2017-10-16T17:39:03.475Z,15.30
2017-10-16T17:41:31.195Z,15.30
2017-10-16T17:43:58.887Z,15.30
2017-10-16T17:46:26.656Z,15.30
2017-10-16T17:48:54.575Z,15.30
2017-10-16T17:51:22.187Z,15.30
2017-10-16T17:53:49.804Z,15.30
2017-10-16T17:56:17.476Z,15.20
2017-10-16T17:58:45.171Z,15.20
2017-10-16T18:01:12.799Z,15.10
2017-10-16T18:03:40.444Z,15.10
2017-10-16T18:06:08.084Z,15.00
2017-10-16T18:08:35.721Z,14.90
2017-10-16T18:11:03.328Z,14.80
2017-10-16T18:13:31.714Z,14.80
2017-10-16T18:16:00.111Z,14.70
2017-10-16T18:18:27.770Z,14.70
2017-10-16T18:20:55.617Z,14.60
2017-10-16T18:23:24.049Z,14.50
2017-10-16T18:25:51.655Z,14.50
2017-10-16T18:28:19.300Z,14.40
2017-10-16T18:30:46.935Z,14.40
2017-10-16T18:33:14.610Z,14.30
2017-10-16T18:35:42.407Z,14.30
2017-10-16T18:38:10.039Z,14.20
2017-10-16T18:40:37.671Z,14.10
2017-10-16T18:43:05.309Z,14.10
2017-10-16T18:45:32.907Z,14.20
2017-10-16T18:48:00.793Z,14.20
2017-10-16T18:50:28.406Z,14.20
2017-10-16T18:52:55.995Z,14.20
2017-10-16T18:55:23.567Z,14.20
2017-10-16T18:57:51.178Z,14.20
2017-10-16T19:00:18.838Z,14.20
2017-10-16T19:02:46.464Z,14.20
2017-10-16T19:05:14.079Z,14.20
2017-10-16T19:07:41.750Z,14.20
2017-10-16T19:10:09.384Z,14.20
2017-10-16T19:12:37.750Z,14.20
2017-10-16T19:15:06.143Z,14.20
2017-10-16T19:17:33.844Z,14.10
2017-10-16T19:20:01.479Z,14.10
2017-10-16T19:22:29.123Z,14.10
2017-10-16T19:24:57.526Z,14.00
2017-10-16T19:27:25.142Z,14.00
2017-10-16T19:29:52.785Z,14.00
2017-10-16T19:32:20.413Z,14.00
2017-10-16T19:34:48.060Z,13.90
2017-10-16T19:37:15.693Z,13.90
2017-10-16T19:39:43.318Z,13.80
2017-10-16T19:42:10.978Z,13.80
2017-10-16T19:44:38.611Z,13.80
2017-10-16T19:47:06.234Z,13.80
2017-10-16T19:49:33.966Z,13.80
2017-10-16T19:52:01.604Z,13.80
2017-10-16T19:54:29.232Z,13.90
2017-10-16T19:56:56.868Z,13.90
2017-10-16T19:59:24.461Z,13.90
2017-10-16T20:01:52.176Z,14.00
2017-10-16T20:04:19.763Z,14.00
2017-10-16T20:06:47.784Z,14.00
2017-10-16T20:09:15.673Z,13.90
2017-10-16T20:11:43.371Z,13.90
2017-10-16T20:14:11.006Z,13.90
2017-10-16T20:16:39.045Z,13.90
2017-10-16T20:19:06.832Z,13.90
2017-10-16T20:21:34.726Z,13.90
2017-10-16T20:24:02.668Z,13.80
2017-10-16T20:26:30.302Z,13.90
2017-10-16T20:28:57.934Z,13.90
2017-10-16T20:31:25.615Z,13.90
2017-10-16T20:33:54.010Z,13.90
2017-10-16T20:36:21.671Z,13.80
2017-10-16T20:38:49.342Z,13.80
2017-10-16T20:41:16.978Z,13.80
2017-10-16T20:43:45.375Z,13.70
2017-10-16T20:46:13.078Z,13.70
2017-10-16T20:48:40.702Z,13.70
2017-10-16T20:51:08.338Z,13.70
2017-10-16T20:53:37.954Z,13.60
2017-10-16T20:56:06.359Z,13.60
2017-10-16T20:58:34.120Z,13.50
2017-10-16T21:01:01.809Z,13.50
2017-10-16T21:03:29.452Z,13.50
2017-10-16T21:05:57.475Z,13.50
2017-10-16T21:08:26.482Z,13.40
2017-10-16T21:10:54.119Z,13.40
2017-10-16T21:13:21.758Z,13.40
2017-10-16T21:15:49.407Z,13.40
2017-10-16T21:18:17.023Z,13.40
2017-10-16T21:20:44.666Z,13.40
2017-10-16T21:23:12.295Z,13.30
2017-10-16T21:25:39.930Z,13.30
2017-10-16T21:28:07.555Z,13.30
2017-10-16T21:30:35.190Z,13.40
2017-10-16T21:33:02.769Z,13.50
2017-10-16T21:35:30.362Z,13.60
2017-10-16T21:37:57.994Z,13.60
2017-10-16T21:40:25.796Z,13.60
2017-10-16T21:42:53.422Z,13.60
2017-10-16T21:45:21.044Z,13.60
2017-10-16T21:47:48.666Z,13.60
2017-10-16T21:50:16.257Z,13.60
2017-10-16T21:52:43.879Z,13.60
2017-10-16T21:55:11.498Z,13.60
2017-10-16T21:57:39.083Z,13.50
2017-10-16T22:00:06.693Z,13.60
2017-10-16T22:02:34.332Z,13.60
2017-10-16T22:05:01.975Z,13.60
2017-10-16T22:07:29.616Z,13.60
2017-10-16T22:09:57.215Z,13.60
2017-10-16T22:12:24.858Z,13.60
2017-10-16T22:14:52.484Z,13.60
2017-10-16T22:17:20.126Z,13.60
2017-10-16T22:19:47.747Z,13.60
2017-10-16T22:22:15.434Z,13.60
2017-10-16T22:24:43.967Z,13.70
2017-10-16T22:27:11.599Z,13.70
2017-10-16T22:29:39.255Z,13.60
2017-10-16T22:32:06.891Z,13.60
2017-10-16T22:34:34.780Z,13.50
2017-10-16T22:37:02.408Z,13.40
2017-10-16T22:39:31.223Z,13.40
2017-10-16T22:41:58.874Z,13.30
2017-10-16T22:44:26.546Z,13.40
2017-10-16T22:46:54.182Z,13.50
2017-10-16T22:49:21.815Z,13.60
2017-10-16T22:51:50.198Z,13.80
2017-10-16T22:54:29.589Z,13.80
2017-10-16T22:56:57.179Z,13.90
2017-10-16T22:59:24.794Z,13.90
2017-10-16T23:01:52.418Z,13.90
2017-10-16T23:04:20.256Z,13.90
2017-10-16T23:06:47.890Z,13.80
2017-10-16T23:09:15.519Z,13.80
2017-10-16T23:11:43.143Z,13.80
2017-10-16T23:14:10.779Z,13.70
2017-10-16T23:16:38.462Z,13.70
2017-10-16T23:19:06.060Z,13.60
2017-10-16T23:21:33.695Z,13.60
2017-10-16T23:24:01.329Z,13.50
2017-10-16T23:26:28.966Z,13.40
2017-10-16T23:28:57.608Z,13.30
2017-10-16T23:31:25.247Z,13.30
2017-10-16T23:33:52.870Z,13.30
2017-10-16T23:36:20.596Z,13.20
2017-10-16T23:38:48.215Z,13.20
2017-10-16T23:41:15.853Z,13.20
2017-10-16T23:43:43.432Z,13.20
2017-10-16T23:46:11.067Z,13.10
2017-10-16T23:48:38.687Z,13.10
2017-10-16T23:51:06.331Z,13.00
2017-10-16T23:53:33.966Z,13.00
2017-10-16T23:56:02.330Z,13.00
2017-10-16T23:58:29.963Z,13.00
